createdAt,value
2023-01-23T00:02:20.777Z,5.30
2023-01-23T00:07:22.907Z,5.30
2023-01-23T00:12:25.675Z,5.00
2023-01-23T00:17:27.833Z,5.20
2023-01-23T00:22:30.713Z,5.20
2023-01-23T00:27:33.305Z,5.00
2023-01-23T00:32:35.472Z,5.00
2023-01-23T00:37:37.818Z,5.10
2023-01-23T00:42:40.090Z,5.20
2023-01-23T00:47:42.341Z,5.20
2023-01-23T00:52:44.555Z,4.70
2023-01-23T00:57:46.720Z,4.70
2023-01-23T01:02:49.181Z,5.00
2023-01-23T01:07:51.495Z,5.20
2023-01-23T01:12:53.678Z,5.10
2023-01-23T01:17:57.105Z,5.30
2023-01-23T01:23:00.584Z,5.00
2023-01-23T01:28:02.941Z,5.50
2023-01-23T01:33:05.282Z,5.00
2023-01-23T01:38:08.738Z,5.10
2023-01-23T01:43:22.737Z,4.80
2023-01-23T01:48:31.036Z,5.00
2023-01-23T01:58:37.696Z,5.20
2023-01-23T02:03:40.223Z,5.20
2023-01-23T02:09:05.687Z,4.90
2023-01-23T02:14:08.035Z,5.10
2023-01-23T02:19:44.557Z,5.00
2023-01-23T02:25:24.323Z,4.90
2023-01-23T02:30:26.779Z,5.00
2023-01-23T02:35:31.365Z,5.00
2023-01-23T02:40:42.027Z,5.40
2023-01-23T02:45:45.621Z,5.00
2023-01-23T02:50:48.926Z,4.90
2023-01-23T02:55:51.294Z,5.00
2023-01-23T03:00:54.567Z,4.80
2023-01-23T03:05:59.161Z,5.00
2023-01-23T03:11:02.378Z,4.80
2023-01-23T03:16:04.854Z,4.90
2023-01-23T03:21:08.314Z,4.90
2023-01-23T03:26:11.587Z,5.00
2023-01-23T03:31:14.575Z,5.30
2023-01-23T03:36:16.921Z,4.80
2023-01-23T03:41:25.479Z,4.90
2023-01-23T03:46:28.470Z,4.80
2023-01-23T03:51:30.657Z,4.90
2023-01-23T03:56:32.810Z,4.90
2023-01-23T04:01:37.179Z,4.10
2023-01-23T04:06:39.725Z,5.00
2023-01-23T04:11:42.298Z,5.00
2023-01-23T04:16:45.755Z,5.00
2023-01-23T04:21:49.040Z,4.90
2023-01-23T04:26:51.232Z,4.80
2023-01-23T04:31:53.563Z,5.10
2023-01-23T04:36:57.077Z,5.10
2023-01-23T04:41:59.946Z,5.10
2023-01-23T04:47:02.823Z,5.00
2023-01-23T04:52:05.333Z,5.10
2023-01-23T05:07:15.780Z,4.90
2023-01-23T05:12:18.421Z,5.00
2023-01-23T05:17:21.949Z,5.00
2023-01-23T05:22:26.057Z,4.80
2023-01-23T05:27:29.459Z,5.70
2023-01-23T05:32:33.301Z,4.90
2023-01-23T05:37:37.991Z,5.00
2023-01-23T05:42:40.296Z,5.10
2023-01-23T05:47:44.341Z,5.10
2023-01-23T05:52:47.684Z,5.10
2023-01-23T05:57:50.219Z,5.20
2023-01-23T06:02:55.782Z,5.20
2023-01-23T06:07:59.480Z,5.30
2023-01-23T06:13:01.792Z,5.10
2023-01-23T06:18:04.389Z,5.10
2023-01-23T06:23:06.634Z,5.70
2023-01-23T06:28:09.165Z,5.10
2023-01-23T06:33:12.347Z,5.10
2023-01-23T06:38:15.711Z,5.40
2023-01-23T06:43:18.028Z,5.10
2023-01-23T06:48:22.144Z,5.30
2023-01-23T06:53:24.568Z,5.00
2023-01-23T06:58:28.975Z,5.30
2023-01-23T07:03:31.230Z,5.10
2023-01-23T07:08:34.963Z,5.10
2023-01-23T07:13:38.036Z,5.40
2023-01-23T07:23:43.843Z,5.00
2023-01-23T07:28:45.995Z,5.30
2023-01-23T07:33:48.105Z,5.00
2023-01-23T07:38:50.223Z,5.10
2023-01-23T07:43:52.420Z,5.00
2023-01-23T07:48:56.214Z,5.00
2023-01-23T07:53:58.330Z,4.90
2023-01-23T07:59:00.726Z,5.10
2023-01-23T08:04:02.820Z,5.00
2023-01-23T08:09:05.091Z,5.30
2023-01-23T08:14:07.227Z,5.10
2023-01-23T08:19:09.451Z,5.20
2023-01-23T08:24:12.777Z,5.40
2023-01-23T08:29:14.914Z,5.50
2023-01-23T08:34:17.079Z,5.50
2023-01-23T08:39:20.176Z,5.60
2023-01-23T08:44:23.306Z,5.70
2023-01-23T08:49:25.644Z,5.60
2023-01-23T08:54:27.805Z,5.70
2023-01-23T08:59:29.939Z,5.70
2023-01-23T09:04:32.153Z,5.80
2023-01-23T09:09:34.399Z,5.30
2023-01-23T09:14:36.666Z,6.10
2023-01-23T09:19:38.891Z,6.10
2023-01-23T09:24:41.154Z,6.10
2023-01-23T09:29:43.313Z,6.10
2023-01-23T09:34:48.779Z,5.80
2023-01-23T09:39:50.976Z,6.00
2023-01-23T09:45:02.668Z,6.50
2023-01-23T09:50:31.043Z,6.40
2023-01-23T09:55:49.707Z,6.50
2023-01-23T10:00:52.151Z,6.30
2023-01-23T10:06:20.223Z,6.20
2023-01-23T10:11:37.651Z,6.40
2023-01-23T10:17:31.818Z,6.60
2023-01-23T10:22:55.117Z,6.40
2023-01-23T10:28:11.616Z,6.50
2023-01-23T10:33:16.866Z,6.00
2023-01-23T10:38:38.076Z,6.60
2023-01-23T10:43:48.890Z,6.40
2023-01-23T10:48:52.835Z,6.80
2023-01-23T10:54:06.169Z,6.90
2023-01-23T10:59:24.870Z,6.80
2023-01-23T11:04:31.253Z,6.80
2023-01-23T11:09:40.047Z,6.90
2023-01-23T11:14:42.263Z,6.90
2023-01-23T11:19:46.981Z,7.10
2023-01-23T11:24:49.219Z,7.00
2023-01-23T11:30:08.602Z,6.90
2023-01-23T11:35:20.510Z,7.00
2023-01-23T11:40:23.115Z,7.10
2023-01-23T11:45:43.961Z,7.10
2023-01-23T11:51:08.903Z,7.10
2023-01-23T11:56:14.038Z,7.00
2023-01-23T12:01:25.109Z,7.10
2023-01-23T12:06:43.187Z,7.10
2023-01-23T12:12:04.749Z,7.20
2023-01-23T12:17:12.861Z,7.00
2023-01-23T12:22:48.151Z,7.00
2023-01-23T12:28:14.186Z,7.00
2023-01-23T12:33:36.588Z,7.00
2023-01-23T12:39:09.437Z,7.00
2023-01-23T12:44:26.657Z,7.00
2023-01-23T12:49:40.829Z,7.20
2023-01-23T12:54:51.310Z,7.00
2023-01-23T13:00:08.562Z,7.10
2023-01-23T13:05:21.271Z,7.00
2023-01-23T13:11:15.042Z,6.30
2023-01-23T13:16:19.901Z,7.20
2023-01-23T13:21:40.613Z,6.80
2023-01-23T13:26:42.798Z,6.90
2023-01-23T13:31:47.610Z,7.00
2023-01-23T13:36:51.847Z,6.80
2023-01-23T13:42:12.848Z,6.90
2023-01-23T14:49:37.887Z,6.90
2023-01-23T14:54:53.351Z,6.90
2023-01-23T14:59:57.884Z,6.80
2023-01-23T15:05:12.087Z,6.70
2023-01-23T15:10:29.791Z,6.50
2023-01-23T15:15:34.599Z,6.70
2023-01-23T15:20:41.747Z,6.60
2023-01-23T15:25:51.730Z,6.60
2023-01-23T15:31:03.169Z,6.50
2023-01-23T15:36:07.145Z,5.70
2023-01-23T15:41:10.713Z,6.30
2023-01-23T15:46:13.226Z,6.00
2023-01-23T15:51:15.509Z,6.20
2023-01-23T15:56:30.199Z,5.80
2023-01-23T16:01:32.408Z,5.90
2023-01-23T16:06:35.129Z,5.70
2023-01-23T16:11:38.873Z,5.70
2023-01-23T16:16:41.054Z,5.60
2023-01-23T16:21:49.905Z,5.40
2023-01-23T16:27:01.602Z,5.30
2023-01-23T16:32:04.042Z,5.20
2023-01-23T16:37:14.273Z,5.00
2023-01-23T16:42:24.965Z,5.10
2023-01-23T16:47:27.188Z,5.00
2023-01-23T16:52:29.323Z,4.70
2023-01-23T16:57:32.654Z,4.80
2023-01-23T17:02:35.446Z,4.50
2023-01-23T17:07:37.562Z,4.60
2023-01-23T17:12:39.833Z,4.50
2023-01-23T17:17:42.064Z,4.50
2023-01-23T17:22:45.531Z,4.70
2023-01-23T17:38:34.571Z,4.40
2023-01-23T17:43:36.749Z,4.60
2023-01-23T17:48:41.248Z,4.70
2023-01-23T17:53:43.476Z,4.80
2023-01-23T17:58:45.665Z,4.60
2023-01-23T18:03:50.572Z,4.60
2023-01-23T18:08:52.844Z,4.80
2023-01-23T18:13:57.820Z,4.50
2023-01-23T18:19:04.814Z,4.70
2023-01-23T18:24:18.451Z,4.60
2023-01-23T18:29:49.044Z,4.60
2023-01-23T18:35:03.965Z,4.70
2023-01-23T18:40:32.882Z,4.60
2023-01-23T18:45:35.178Z,4.60
2023-01-23T18:50:37.986Z,4.80
2023-01-23T18:56:02.239Z,4.60
2023-01-23T19:01:38.380Z,4.70
2023-01-23T19:06:41.768Z,4.80
2023-01-23T19:12:02.681Z,5.50
2023-01-23T19:17:16.584Z,4.90
2023-01-23T19:22:19.338Z,4.80
2023-01-23T19:27:23.872Z,5.00
2023-01-23T19:32:26.312Z,5.20
2023-01-23T19:37:28.528Z,5.20
2023-01-23T19:42:41.632Z,5.10
2023-01-23T19:47:53.565Z,5.40
2023-01-23T19:52:56.764Z,5.30
2023-01-23T19:57:59.653Z,5.60
2023-01-23T20:03:02.575Z,5.50
2023-01-23T20:08:04.838Z,5.60
2023-01-23T20:13:08.937Z,5.30
2023-01-23T20:18:11.699Z,5.40
2023-01-23T20:23:13.991Z,5.70
2023-01-23T20:28:16.220Z,5.40
2023-01-23T20:38:21.610Z,5.50
2023-01-23T20:43:23.747Z,5.80
2023-01-23T20:48:25.945Z,5.60
2023-01-23T20:53:30.956Z,5.50
2023-01-23T20:58:53.136Z,5.60
2023-01-23T21:03:55.432Z,5.70
2023-01-23T21:08:58.512Z,5.70
2023-01-23T21:14:01.095Z,5.80
2023-01-23T21:19:04.015Z,5.70
2023-01-23T21:24:06.532Z,5.60
2023-01-23T21:29:08.577Z,5.50
2023-01-23T21:34:13.927Z,5.70
2023-01-23T21:39:17.368Z,5.60
2023-01-23T21:44:19.472Z,6.20
2023-01-23T21:49:21.570Z,5.60
2023-01-23T21:54:23.722Z,5.60
2023-01-23T21:59:25.819Z,5.80
2023-01-23T22:09:31.224Z,5.70
2023-01-23T22:14:33.412Z,5.70
2023-01-23T22:19:35.526Z,5.80
2023-01-23T22:24:37.666Z,5.60
2023-01-23T22:29:39.942Z,5.60
2023-01-23T22:34:42.237Z,5.80
2023-01-23T22:39:44.371Z,5.70
2023-01-23T22:44:46.535Z,5.80
2023-01-23T22:49:48.592Z,5.70
2023-01-23T22:59:53.177Z,5.80
2023-01-23T23:04:55.339Z,6.00
2023-01-23T23:09:57.482Z,5.70
2023-01-23T23:14:59.684Z,5.70
2023-01-23T23:20:01.821Z,5.90
2023-01-23T23:25:04.153Z,5.80
2023-01-23T23:30:07.399Z,5.90
2023-01-23T23:35:09.706Z,5.70
2023-01-23T23:40:12.063Z,5.80
2023-01-23T23:45:14.257Z,5.80
2023-01-23T23:50:16.886Z,5.80
2023-01-23T23:55:19.279Z,5.80
